Monday, January 21, 2019, 5:56 PM EST
Back to Local

KMPV, Knapp State Airport

Location: Barre, VT, United States Lat: 44.2
Local Time: 5:56 PM EST (22:56 GMT) Lon: -72.567
Time Zone: US/Eastern Elev: 1164 ft

Show me the last for .
Show Decoded

2019-01-21 17:35 METAR KMPV 212235Z AUTO 30020G28KT 3SM UP OVC041 M20/M23 A2996 RMK AO2 PK WND
                 29028/2234 UPB21SNE21B22E23 P0000 T12001233 =
2019-01-21 17:27 METAR KMPV 212227Z AUTO 32018G27KT 2 1/2SM UP OVC035 M20/M23 A2995 RMK AO2 PK
                 WND 31027/2152 UPB21SNE21B22E23 P0000 T12001233 =
2019-01-21 17:10 METAR KMPV 212210Z AUTO 32016KT 2SM -SN BR OVC025 M21/M23 A2994 RMK AO2 PK WND
                 31027/2152 P0000 T12061228 =
2019-01-21 17:07 METAR KMPV 212207Z AUTO 31016G25KT 1 1/4SM -SN BR OVC023 M21/M23 A2994 RMK AO2
                 PK WND 31027/2152 P0000 T12061228 =
2019-01-21 16:51 METAR KMPV 212151Z AUTO 31019G29KT 3/4SM -SN BR OVC023 M21/M23 A2993 RMK AO2 PK
                 WND 31035/2109 SLP172 P0001 T12061228 =
2019-01-21 15:51 METAR KMPV 212051Z AUTO 32012G22KT 300V360 3/4SM -SN BR OVC022 M21/M23 A2989 RMK
                 AO2 SLP159 P0000 60003 T12061228 53024 =
2019-01-21 15:42 METAR KMPV 212042Z AUTO 33013G21KT 300V010 1SM -SN OVC022 M21/M23 A2989 RMK AO2
                 P0000 T12061233 =
2019-01-21 15:29 METAR KMPV 212029Z AUTO 35008KT 320V050 1 1/2SM -SN BKN018 OVC025 M21/M23 A2988
                 RMK AO2 P0000 T12061233 =
2019-01-21 14:51 METAR KMPV 211951Z AUTO 33009G20KT 1SM -SN BR VV017 M21/M23 A2986 RMK AO2 PK WND
                 34028/1857 SLP150 P0003 T12111233 =
2019-01-21 13:51 METAR KMPV 211851Z AUTO 31018G29KT 3/4SM -SN OVC020 M21/M24 A2983 RMK AO2 PK WND
                 34029/1846 SLP139 P0000 T12111239 =
2019-01-21 12:51 METAR KMPV 211751Z AUTO 30016G24KT 1/4SM +SN BKN018 OVC025 M21/M24 A2981 RMK AO2
                 PK WND 29030/1739 SLP133 P0000 60001 T12111239 11211 21233 58002 =
2019-01-21 12:19 METAR KMPV 211719Z AUTO 32018G26KT 1SM -SN BKN019 OVC025 M21/M24 A2982 RMK AO2
                 PK WND 32026/1719 P0000 T12111244 =
2019-01-21 12:12 METAR KMPV 211712Z AUTO 31012G21KT 1 1/4SM -SN BKN020 OVC026 M21/M24 A2982 RMK
                 AO2 P0000 T12111244 =
2019-01-21 12:02 METAR KMPV 211702Z AUTO 31013G21KT 1SM -SN BKN020 OVC026 M22/M24 A2982 RMK AO2
                 P0000 T12171244 =
2019-01-21 11:51 METAR KMPV 211651Z AUTO 32014G21KT 1 1/4SM -SN BKN022 OVC027 M22/M24 A2982 RMK
                 AO2 SLP135 P0000 T12171244 =
2019-01-21 11:44 METAR KMPV 211644Z AUTO 31010G20KT 1 1/4SM -SN BKN022 OVC027 M22/M25 A2982 RMK
                 AO2 P0000 T12171250 =
2019-01-21 11:27 METAR KMPV 211627Z AUTO 32017G25KT 1SM -SN BKN022 OVC027 M22/M26 A2983 RMK AO2
                 P0000 T12171256 =
2019-01-21 11:17 METAR KMPV 211617Z AUTO 31010KT 1 1/2SM -SN BKN020 OVC028 M22/M26 A2983 RMK AO2
                 P0000 T12221256 =
2019-01-21 10:58 METAR KMPV 211558Z AUTO 32013G20KT 1 1/4SM -SN OVC017 M22/M26 A2983 RMK AO2
                 P0000 T12221256 =
2019-01-21 10:51 METAR KMPV 211551Z AUTO 31012G21KT 1SM -SN VV017 M22/M26 A2983 RMK AO2 SLP140
                 P0000 T12221256 =
2019-01-21 09:51 METAR KMPV 211451Z AUTO 31016G28KT 1SM -SN OVC023 M23/M26 A2982 RMK AO2 PK WND
                 31028/1451 SLP135 P0000 60001 T12281261 53028 =
2019-01-21 09:28 METAR KMPV 211428Z AUTO 31014G24KT 1SM -SN BKN025 OVC034 M23/M26 A2980 RMK AO2
                 P0000 T12281261 =
2019-01-21 09:20 METAR KMPV 211420Z AUTO 32015G24KT 3/4SM -SN BKN029 OVC036 M23/M26 A2980 RMK AO2
                 P0000 T12281261 =
2019-01-21 09:13 METAR KMPV 211413Z AUTO 31016G23KT 1SM -SN BKN031 OVC040 M23/M26 A2980 RMK AO2
                 P0000 T12281261 =
2019-01-21 08:57 METAR KMPV 211357Z AUTO 31012G23KT 1 1/2SM -SN BKN031 BKN035 OVC048 M23/M26
                 A2979 RMK AO2 P0000 T12331261 =
2019-01-21 08:51 METAR KMPV 211351Z AUTO 32016G26KT 1 1/4SM -SN BKN029 OVC048 M23/M26 A2979 RMK
                 AO2 PK WND 31026/1345 UPB04E20SNB1255E04B05E06B20 SLP124 P0001 T12331261 =
2019-01-21 08:33 METAR KMPV 211333Z AUTO 31017G25KT 1SM -SN OVC022 M23/M26 A2978 RMK AO2 PK WND
                 31026/1316 UPB04E20SNB1255E04B05E06B20 P0001 T12331261 =
2019-01-21 07:54 METAR KMPV 211254Z AUTO 32016G23KT 1 3/4SM HZ BKN020 OVC070 M23/M27 A2976 RMK
                 AO2 T12331267 =
2019-01-21 07:51 METAR KMPV 211251Z AUTO 32015G22KT 2 1/2SM HZ SCT020 OVC070 M23/M27 A2976 RMK
                 AO2 PK WND 29028/1222 UPB12E50 SLP115 P0000 T12331267 =
2019-01-21 07:35 METAR KMPV 211235Z AUTO 32015G27KT 2 1/2SM UP SCT018 OVC070 M23/M27 A2975 RMK
                 AO2 PK WND 29028/1222 VIS 2V4 UPB12 P0000 T12331267 =
2019-01-21 07:21 METAR KMPV 211221Z AUTO 31016G26KT 3SM UP BKN018 OVC070 M23/M27 A2975 RMK AO2 PK
                 WND 34026/1219 UPB12 P0000 T12331267 =
2019-01-21 07:10 METAR KMPV 211210Z AUTO 33016G22KT 2 1/2SM HZ BKN018 OVC065 M23/M27 A2974 RMK
                 AO2 T12331267 =
2019-01-21 07:02 METAR KMPV 211202Z AUTO 32012G21KT 3SM HZ BKN019 OVC065 M23/M26 A2974 RMK AO2
                 T12331261 =
2019-01-21 06:51 METAR KMPV 211151Z AUTO 32014G23KT 4SM HZ SCT018 OVC065 M23/M26 A2973 RMK AO2
                 SLP106 60000 70050 T12331261 11211 21233 53008 =
2019-01-21 05:51 METAR KMPV 211051Z AUTO 33010KT 3SM BR OVC016 M23/M25 A2972 RMK AO2 UPB26E29
                 SLP099 P0000 T12281250 =
2019-01-21 05:49 METAR KMPV 211049Z AUTO 32010G19KT 3SM BR OVC016 M23/M25 A2972 RMK AO2 UPB26E29
                 P0000 =
2019-01-21 04:51 METAR KMPV 210951Z AUTO 31011G17KT 2 1/2SM BR OVC017 M22/M24 A2971 RMK AO2
                 SLP096 T12221244 =
2019-01-21 04:42 METAR KMPV 210942Z AUTO 32009G18KT 2 1/2SM BR BKN016 OVC023 M22/M24 A2971 RMK
                 AO2 T12221244 =
2019-01-21 04:33 METAR KMPV 210933Z AUTO 33009KT 1 3/4SM BR OVC017 M22/M24 A2970 RMK AO2
                 T12221244 =
2019-01-21 03:51 METAR KMPV 210851Z AUTO 32010KT 2 1/2SM BR BKN020 BKN027 OVC070 M22/M24 A2969
                 RMK AO2 SLP088 T12221244 51016 =
2019-01-21 03:25 METAR KMPV 210825Z AUTO 32010G18KT 3SM BR BKN020 OVC070 M22/M24 A2967 RMK AO2
                 T12221244 =
2019-01-21 02:51 METAR KMPV 210751Z AUTO 32014G23KT 4SM HZ FEW019 OVC070 M22/M24 A2967 RMK AO2
                 SLP081 T12171244 =
2019-01-21 02:38 METAR KMPV 210738Z AUTO 32011G22KT 3SM HZ SCT019 OVC070 M22/M24 A2967 RMK AO2
                 T12171244 =
2019-01-21 02:24 METAR KMPV 210724Z AUTO 31014G18KT 5SM HZ BKN018 OVC070 M22/M24 A2967 RMK AO2
                 T12171244 =
2019-01-21 01:51 METAR KMPV 210651Z AUTO 32011KT 6SM HZ OVC043 M21/M24 A2966 RMK AO2 SLP075
                 T12111239 =
2019-01-21 00:51 METAR KMPV 210551Z AUTO 32011G18KT 5SM BR OVC039 M21/M23 A2964 RMK AO2 SLP068
                 T12111233 11200 21211 53008 =
2019-01-21 00:31 METAR KMPV 210531Z AUTO 32013G21KT 5SM HZ SCT017 OVC039 M21/M23 A2963 RMK AO2
                 T12061233 =
2019-01-20 23:51 METAR KMPV 210451Z AUTO 32014G21KT 5SM BR OVC019 M21/M23 A2963 RMK AO2 SLP064
                 T12111233 411221211 =
2019-01-20 23:13 METAR KMPV 210413Z AUTO 31013G19KT 4SM BR OVC029 M21/M23 A2962 RMK AO2 T12111233
                 =
2019-01-20 22:57 METAR KMPV 210357Z AUTO 31012KT 3SM BR OVC031 M21/M23 A2962 RMK AO2 T12061228 =
2019-01-20 22:51 METAR KMPV 210351Z AUTO 31012G19KT 2 1/2SM BR OVC029 M21/M23 A2962 RMK AO2
                 SLP062 T12061228 =
2019-01-20 21:51 METAR KMPV 210251Z AUTO 33009KT 3SM BR OVC015 M21/M23 A2962 RMK AO2 SLP060
                 T12061228 53010 =
2019-01-20 20:51 METAR KMPV 210151Z AUTO 32013G20KT 4SM HZ OVC017 M21/M23 A2961 RMK AO2 SLP058
                 T12061233 =
2019-01-20 19:51 METAR KMPV 210051Z AUTO 31011G22KT 7SM OVC019 M20/M23 A2958 RMK AO2 SLP049
                 T12001228 =
2019-01-20 19:06 METAR KMPV 210006Z AUTO 31012G22KT 4SM BR BKN016 OVC060 M20/M22 A2958 RMK AO2
                 T12001222 =
2019-01-20 18:59 METAR KMPV 202359Z AUTO 32015G22KT 3SM HZ BKN014 OVC060 M19/M22 A2958 RMK AO2
                 T11941222 =
2019-01-20 18:51 METAR KMPV 202351Z AUTO 31013G21KT 3SM HZ SCT014 OVC060 M19/M22 A2958 RMK AO2
                 SNE2255 SLP048 P0000 60006 T11941222 11122 21194 51038 =

Support USWX by starting your Amazon purchase here.